createdAt,value
2023-04-18T00:01:50.262Z,102079.78
2023-04-18T00:04:18.543Z,102081.69
2023-04-18T00:06:47.248Z,102085.13
2023-04-18T00:09:14.622Z,102092.44
2023-04-18T00:11:41.989Z,102094.41
2023-04-18T00:14:10.301Z,102093.22
2023-04-18T00:16:38.791Z,102086.03
2023-04-18T00:19:06.301Z,102081.84
2023-04-18T00:21:33.553Z,102079.78
2023-04-18T00:24:00.662Z,102078.78
2023-04-18T00:26:36.714Z,102084.16
2023-04-18T00:29:05.298Z,102073.13
2023-04-18T00:31:32.586Z,102077.09
2023-04-18T00:33:59.644Z,102081.00
2023-04-18T00:36:27.783Z,102080.91
2023-04-18T00:38:54.989Z,102084.34
2023-04-18T00:41:25.465Z,102084.81
2023-04-18T00:43:52.515Z,102076.28
2023-04-18T00:46:22.726Z,102082.69
2023-04-18T00:48:50.685Z,102082.91
2023-04-18T00:51:18.044Z,102086.03
2023-04-18T00:53:48.105Z,102088.00
2023-04-18T00:56:18.504Z,102094.06
2023-04-18T00:58:45.749Z,102091.84
2023-04-18T01:01:14.230Z,102087.31
2023-04-18T01:03:41.628Z,102085.00
2023-04-18T01:06:09.277Z,102091.16
2023-04-18T01:08:37.145Z,102088.81
2023-04-18T01:11:04.454Z,102081.81
2023-04-18T01:13:34.669Z,102088.22
2023-04-18T01:16:01.840Z,102088.19
2023-04-18T01:18:31.494Z,102083.50
2023-04-18T01:21:00.381Z,102081.13
2023-04-18T01:23:27.579Z,102089.97
2023-04-18T01:25:54.704Z,102084.75
2023-04-18T01:28:22.740Z,102089.13
2023-04-18T01:30:49.904Z,102092.50
2023-04-18T01:33:17.051Z,102094.22
2023-04-18T01:35:44.128Z,102093.78
2023-04-18T01:38:11.332Z,102095.66
2023-04-18T01:40:38.410Z,102089.19
2023-04-18T01:43:07.759Z,102087.06
2023-04-18T01:45:34.923Z,102094.13
2023-04-18T01:48:03.505Z,102091.25
2023-04-18T01:50:30.732Z,102088.50
2023-04-18T01:52:57.773Z,102086.19
2023-04-18T01:55:24.817Z,102090.88
2023-04-18T01:57:51.866Z,102087.66
2023-04-18T02:00:19.970Z,102083.16
2023-04-18T02:02:47.305Z,102080.44
2023-04-18T02:05:14.452Z,102078.81
2023-04-18T02:07:42.700Z,102074.88
2023-04-18T02:10:11.985Z,102081.59
2023-04-18T02:12:39.126Z,102079.78
2023-04-18T02:15:10.715Z,102083.66
2023-04-18T02:17:38.288Z,102077.88
2023-04-18T02:20:08.091Z,102079.34
2023-04-18T02:22:40.340Z,102082.63
2023-04-18T02:25:07.939Z,102078.84
2023-04-18T02:27:35.007Z,102079.09
2023-04-18T02:30:02.209Z,102083.66
2023-04-18T02:32:29.502Z,102079.53
2023-04-18T02:34:59.898Z,102079.16
2023-04-18T02:37:29.323Z,102085.25
2023-04-18T02:39:56.595Z,102087.09
2023-04-18T02:42:23.756Z,102085.59
2023-04-18T02:44:51.087Z,102082.59
2023-04-18T02:47:21.681Z,102085.91
2023-04-18T02:49:51.450Z,102089.56
2023-04-18T02:52:18.803Z,102091.13
2023-04-18T02:54:45.890Z,102096.72
2023-04-18T02:57:12.933Z,102091.75
2023-04-18T02:59:40.024Z,102094.69
2023-04-18T03:02:07.146Z,102096.88
2023-04-18T03:04:34.365Z,102099.63
2023-04-18T03:07:01.630Z,102103.13
2023-04-18T03:09:28.661Z,102099.41
2023-04-18T03:11:55.756Z,102105.59
2023-04-18T03:14:22.802Z,102102.06
2023-04-18T03:16:51.745Z,102104.41
2023-04-18T03:19:20.554Z,102102.88
2023-04-18T03:21:48.095Z,102096.03
2023-04-18T03:24:15.420Z,102101.22
2023-04-18T03:26:42.799Z,102104.59
2023-04-18T03:29:10.039Z,102098.66
2023-04-18T03:31:41.426Z,102104.59
2023-04-18T03:34:08.648Z,102104.91
2023-04-18T03:36:39.590Z,102102.13
2023-04-18T03:39:06.699Z,102106.59
2023-04-18T03:41:33.754Z,102110.72
2023-04-18T03:44:00.825Z,102110.91
2023-04-18T03:46:27.977Z,102100.41
2023-04-18T03:48:55.396Z,102108.84
2023-04-18T03:51:22.555Z,102115.63
2023-04-18T03:53:49.596Z,102113.19
2023-04-18T03:56:16.771Z,102116.25
2023-04-18T03:58:43.870Z,102111.81
2023-04-18T04:01:10.976Z,102106.34
2023-04-18T04:03:38.243Z,102108.00
2023-04-18T04:06:06.496Z,102115.84
2023-04-18T04:08:37.062Z,102111.38
2023-04-18T04:11:04.135Z,102108.53
2023-04-18T04:13:33.932Z,102110.06
2023-04-18T04:16:01.069Z,102109.53
2023-04-18T04:18:31.469Z,102118.59
2023-04-18T04:21:00.604Z,102119.44
2023-04-18T04:23:58.546Z,102118.13
2023-04-18T04:26:31.713Z,102129.78
2023-04-18T04:28:59.092Z,102126.63
2023-04-18T04:31:26.587Z,102121.69
2023-04-18T04:34:30.959Z,102121.44
2023-04-18T04:37:32.629Z,102119.59
2023-04-18T04:43:31.533Z,102126.56
2023-04-18T04:45:58.921Z,102123.66
2023-04-18T04:49:12.004Z,102132.19
2023-04-18T04:51:48.377Z,102133.91
2023-04-18T04:54:18.331Z,102131.59
2023-04-18T04:56:51.904Z,102133.72
2023-04-18T04:59:19.201Z,102132.53
2023-04-18T05:01:52.354Z,102138.94
2023-04-18T05:04:20.238Z,102134.22
2023-04-18T05:06:47.797Z,102139.63
2023-04-18T05:09:21.189Z,102140.63
2023-04-18T05:11:55.177Z,102144.19
2023-04-18T05:14:31.370Z,102145.41
2023-04-18T05:17:12.700Z,102147.56
2023-04-18T05:22:48.484Z,102144.47
2023-04-18T05:25:15.905Z,102152.94
2023-04-18T05:27:43.774Z,102152.38
2023-04-18T05:30:14.530Z,102159.91
2023-04-18T05:32:56.631Z,102154.13
2023-04-18T05:35:23.977Z,102145.41
2023-04-18T05:38:06.798Z,102150.50
2023-04-18T05:40:37.008Z,102150.28
2023-04-18T05:43:13.155Z,102143.25
2023-04-18T05:45:40.272Z,102147.31
2023-04-18T05:48:08.669Z,102148.88
2023-04-18T05:50:43.367Z,102147.59
2023-04-18T05:53:15.395Z,102153.06
2023-04-18T05:56:02.990Z,102154.38
2023-04-18T05:58:52.470Z,102147.50
2023-04-18T06:01:28.968Z,102149.44
2023-04-18T06:03:59.899Z,102146.47
2023-04-18T06:06:29.867Z,102146.09
2023-04-18T06:08:57.230Z,102151.06
2023-04-18T06:11:24.683Z,102159.88
2023-04-18T06:13:51.991Z,102159.69
2023-04-18T06:16:19.560Z,102161.53
2023-04-18T06:18:46.620Z,102158.66
2023-04-18T06:21:14.896Z,102154.47
2023-04-18T06:23:42.079Z,102164.00
2023-04-18T06:26:09.815Z,102162.28
2023-04-18T06:28:40.485Z,102161.28
2023-04-18T06:31:11.541Z,102168.41
2023-04-18T06:33:38.906Z,102157.69
2023-04-18T06:36:07.352Z,102158.16
2023-04-18T06:38:34.649Z,102168.50
2023-04-18T06:41:01.757Z,102169.00
2023-04-18T06:43:36.146Z,102167.84
2023-04-18T06:46:05.605Z,102170.84
2023-04-18T06:48:36.678Z,102164.72
2023-04-18T06:51:03.901Z,102167.38
2023-04-18T06:53:31.018Z,102170.78
2023-04-18T06:55:58.152Z,102177.59
2023-04-18T06:58:25.206Z,102173.75
2023-04-18T07:00:53.079Z,102177.81
2023-04-18T07:03:20.691Z,102171.31
2023-04-18T07:05:48.292Z,102170.09
2023-04-18T07:08:15.848Z,102169.94
2023-04-18T07:10:43.185Z,102175.94
2023-04-18T07:13:10.265Z,102179.09
2023-04-18T07:15:39.851Z,102176.06
2023-04-18T07:18:06.967Z,102177.84
2023-04-18T07:20:34.069Z,102172.06
2023-04-18T07:23:01.125Z,102171.41
2023-04-18T07:25:28.213Z,102174.59
2023-04-18T07:27:55.842Z,102170.41
2023-04-18T07:30:23.028Z,102168.97
2023-04-18T07:32:50.461Z,102173.69
2023-04-18T07:35:17.704Z,102181.19
2023-04-18T07:37:45.046Z,102180.59
2023-04-18T07:40:13.160Z,102176.16
2023-04-18T07:42:40.322Z,102183.16
2023-04-18T07:45:08.073Z,102184.38
2023-04-18T07:47:35.447Z,102181.94
2023-04-18T07:50:03.298Z,102180.44
2023-04-18T07:52:39.700Z,102183.03
2023-04-18T07:55:07.975Z,102187.16
2023-04-18T07:57:35.006Z,102193.97
2023-04-18T08:00:02.198Z,102187.16
2023-04-18T08:02:29.416Z,102187.22
2023-04-18T08:04:56.879Z,102182.44
2023-04-18T08:07:24.139Z,102193.97
2023-04-18T08:09:51.244Z,102191.66
2023-04-18T08:12:21.460Z,102193.28
2023-04-18T08:14:48.739Z,102190.66
2023-04-18T08:17:15.945Z,102196.75
2023-04-18T08:19:48.528Z,102195.84
2023-04-18T08:22:15.752Z,102197.75
2023-04-18T08:24:57.201Z,102202.41
2023-04-18T08:27:32.356Z,102201.44
2023-04-18T08:30:00.493Z,102207.69
2023-04-18T08:32:27.801Z,102188.72
2023-04-18T08:34:58.525Z,102193.63
2023-04-18T08:37:27.827Z,102199.69
2023-04-18T08:39:54.993Z,102198.91
2023-04-18T08:42:23.795Z,102204.16
2023-04-18T08:44:51.401Z,102198.47
2023-04-18T08:47:19.259Z,102203.56
2023-04-18T08:49:46.935Z,102194.34
2023-04-18T08:52:16.819Z,102189.38
2023-04-18T08:54:49.000Z,102195.13
2023-04-18T08:57:27.007Z,102188.34
2023-04-18T08:59:55.442Z,102196.53
2023-04-18T09:02:52.761Z,102205.47
2023-04-18T09:05:30.104Z,102195.66
2023-04-18T09:07:57.457Z,102199.09
2023-04-18T09:10:30.766Z,102196.03
2023-04-18T09:13:01.058Z,102194.72
2023-04-18T09:15:29.835Z,102189.91
2023-04-18T09:18:02.929Z,102191.91
2023-04-18T09:20:42.316Z,102182.06
2023-04-18T09:23:25.989Z,102198.34
2023-04-18T09:25:53.714Z,102194.13
2023-04-18T09:28:33.504Z,102198.59
2023-04-18T09:31:12.990Z,102191.00
2023-04-18T09:33:54.516Z,102188.09
2023-04-18T09:36:27.718Z,102192.34
2023-04-18T09:38:57.022Z,102193.28
2023-04-18T09:41:27.340Z,102193.66
2023-04-18T09:44:15.133Z,102199.06
2023-04-18T09:46:46.623Z,102196.56
2023-04-18T09:49:16.713Z,102194.28
2023-04-18T09:51:46.285Z,102198.56
2023-04-18T09:54:38.365Z,102187.69
2023-04-18T09:57:10.987Z,102187.41
2023-04-18T10:00:21.775Z,102195.50
2023-04-18T10:03:00.723Z,102198.28
2023-04-18T10:05:48.258Z,102194.72
2023-04-18T10:08:16.115Z,102194.13
2023-04-18T10:10:49.988Z,102190.47
2023-04-18T10:13:30.731Z,102194.53
2023-04-18T10:16:04.141Z,102184.22
2023-04-18T10:18:33.882Z,102182.09
2023-04-18T10:21:05.341Z,102183.22
2023-04-18T10:23:32.368Z,102183.94
2023-04-18T10:26:00.693Z,102184.38
2023-04-18T10:28:47.992Z,102174.78
2023-04-18T10:31:17.286Z,102177.19
2023-04-18T10:34:06.884Z,102170.91
2023-04-18T10:36:38.564Z,102167.84
2023-04-18T10:39:25.541Z,102176.78
2023-04-18T10:41:52.823Z,102181.09
2023-04-18T10:44:22.861Z,102172.63
2023-04-18T10:46:53.291Z,102175.56
2023-04-18T10:49:31.972Z,102176.13
2023-04-18T10:52:02.307Z,102176.78
2023-04-18T10:55:32.062Z,102174.00
2023-04-18T10:57:59.434Z,102181.03
2023-04-18T11:00:29.824Z,102176.53
2023-04-18T11:02:57.940Z,102173.97
2023-04-18T11:05:29.369Z,102184.69
2023-04-18T11:07:56.438Z,102173.28
2023-04-18T11:10:27.587Z,102176.94
2023-04-18T11:12:59.488Z,102169.47
2023-04-18T11:15:27.530Z,102171.72
2023-04-18T11:17:59.842Z,102168.81
2023-04-18T11:20:27.607Z,102175.09
2023-04-18T11:22:58.662Z,102175.19
2023-04-18T11:25:40.493Z,102169.84
2023-04-18T11:28:09.514Z,102177.81
2023-04-18T11:30:44.430Z,102171.25
2023-04-18T11:33:15.866Z,102167.06
2023-04-18T11:35:47.340Z,102160.97
2023-04-18T11:38:16.158Z,102164.06
2023-04-18T11:40:52.844Z,102163.81
2023-04-18T11:43:25.807Z,102159.50
2023-04-18T11:46:00.274Z,102165.06
2023-04-18T11:48:42.935Z,102156.91
2023-04-18T11:51:38.617Z,102160.66
2023-04-18T11:54:06.561Z,102152.13
2023-04-18T11:56:36.076Z,102149.28
2023-04-18T11:59:10.636Z,102152.31
2023-04-18T12:01:37.733Z,102151.16
2023-04-18T12:04:09.552Z,102153.41
2023-04-18T12:06:51.708Z,102154.50
2023-04-18T12:09:24.322Z,102154.13
2023-04-18T12:12:04.374Z,102150.41
2023-04-18T12:14:35.745Z,102149.91
2023-04-18T12:17:04.195Z,102151.31
2023-04-18T12:19:32.598Z,102153.47
2023-04-18T12:22:49.514Z,102150.44
2023-04-18T12:25:27.781Z,102143.88
2023-04-18T12:28:08.217Z,102150.81
2023-04-18T12:30:38.040Z,102146.13
2023-04-18T12:33:05.566Z,102150.09
2023-04-18T12:36:08.670Z,102141.34
2023-04-18T12:38:36.139Z,102144.84
2023-04-18T12:41:09.334Z,102140.72
2023-04-18T12:43:39.413Z,102146.38
2023-04-18T12:46:30.099Z,102149.38
2023-04-18T12:48:58.813Z,102142.06
2023-04-18T12:51:40.667Z,102146.88
2023-04-18T12:54:09.809Z,102140.69
2023-04-18T12:56:36.882Z,102135.91
2023-04-18T12:59:03.957Z,102149.03
2023-04-18T13:01:31.513Z,102133.91
2023-04-18T13:04:10.749Z,102140.91
2023-04-18T13:06:40.095Z,102136.75
2023-04-18T13:09:08.567Z,102131.31
2023-04-18T13:11:38.680Z,102127.81
2023-04-18T13:14:06.021Z,102128.06
2023-04-18T13:16:33.158Z,102128.72
2023-04-18T13:19:01.518Z,102120.28
2023-04-18T13:21:28.628Z,102117.13
2023-04-18T13:23:55.792Z,102117.91
2023-04-18T13:26:23.364Z,102118.19
2023-04-18T13:28:50.626Z,102119.44
2023-04-18T13:31:17.766Z,102124.44
2023-04-18T13:33:47.143Z,102114.38
2023-04-18T13:36:14.216Z,102115.00
2023-04-18T13:38:41.697Z,102114.50
2023-04-18T13:41:13.194Z,102117.31
2023-04-18T13:43:40.573Z,102110.00
2023-04-18T13:46:12.860Z,102113.31
2023-04-18T13:48:40.504Z,102117.72
2023-04-18T13:51:10.186Z,102110.53
2023-04-18T13:53:40.451Z,102112.78
2023-04-18T13:56:18.363Z,102097.06
2023-04-18T13:58:48.886Z,102103.47
2023-04-18T14:01:24.301Z,102100.34
2023-04-18T14:03:57.062Z,102098.75
2023-04-18T14:06:24.315Z,102099.72
2023-04-18T14:08:51.371Z,102091.69
2023-04-18T14:11:23.852Z,102093.38
2023-04-18T14:14:03.044Z,102093.19
2023-04-18T14:16:41.102Z,102099.38
2023-04-18T14:19:08.242Z,102094.19
2023-04-18T14:21:39.503Z,102091.56
2023-04-18T14:24:08.474Z,102091.78
2023-04-18T14:26:35.604Z,102087.69
2023-04-18T14:29:05.677Z,102090.94
2023-04-18T14:31:32.829Z,102089.84
2023-04-18T14:33:59.950Z,102092.25
2023-04-18T14:36:27.562Z,102088.81
2023-04-18T14:38:55.286Z,102086.28
2023-04-18T14:41:29.829Z,102090.38
2023-04-18T14:43:57.012Z,102083.25
2023-04-18T14:46:24.174Z,102087.75
2023-04-18T14:48:52.597Z,102087.91
2023-04-18T14:51:19.706Z,102091.41
2023-04-18T14:54:00.116Z,102081.00
2023-04-18T14:56:27.476Z,102085.06
2023-04-18T14:58:54.525Z,102078.06
2023-04-18T15:01:21.709Z,102087.53
2023-04-18T15:03:51.368Z,102077.38
2023-04-18T15:06:18.634Z,102082.41
2023-04-18T15:08:46.354Z,102076.84
2023-04-18T15:11:13.827Z,102072.38
2023-04-18T15:13:41.003Z,102069.78
2023-04-18T15:16:14.372Z,102073.66
2023-04-18T15:18:41.572Z,102070.16
2023-04-18T15:21:08.872Z,102075.44
2023-04-18T15:23:36.144Z,102074.19
2023-04-18T15:26:03.385Z,102075.28
2023-04-18T15:28:32.168Z,102075.03
2023-04-18T15:30:59.707Z,102066.34
2023-04-18T15:33:26.812Z,102076.63
2023-04-18T15:35:55.727Z,102074.09
2023-04-18T15:38:26.055Z,102068.66
2023-04-18T15:40:53.217Z,102072.97
2023-04-18T15:43:20.785Z,102077.81
2023-04-18T15:45:48.939Z,102080.59
2023-04-18T15:48:16.640Z,102068.69
2023-04-18T15:50:54.331Z,102069.84
2023-04-18T15:53:21.513Z,102067.78
2023-04-18T15:55:48.688Z,102077.00
2023-04-18T15:58:15.858Z,102076.75
2023-04-18T16:00:44.484Z,102079.13
2023-04-18T16:03:12.199Z,102077.66
2023-04-18T16:05:39.700Z,102076.44
2023-04-18T16:08:08.825Z,102079.94
2023-04-18T16:10:37.680Z,102077.78
2023-04-18T16:13:06.592Z,102075.00
2023-04-18T16:15:43.716Z,102081.28
2023-04-18T16:18:11.249Z,102072.66
2023-04-18T16:20:38.376Z,102077.03
2023-04-18T16:23:05.589Z,102076.72
2023-04-18T16:25:32.964Z,102071.81
2023-04-18T16:28:00.036Z,102079.41
2023-04-18T16:30:27.189Z,102075.31
2023-04-18T16:32:54.479Z,102080.22
2023-04-18T16:35:24.812Z,102069.59
2023-04-18T16:37:51.924Z,102079.50
2023-04-18T16:40:19.040Z,102079.47
2023-04-18T16:42:46.890Z,102073.69
2023-04-18T16:45:14.154Z,102078.84
2023-04-18T16:47:44.351Z,102075.59
2023-04-18T16:50:14.110Z,102086.63
2023-04-18T16:52:41.317Z,102081.25
2023-04-18T16:55:14.549Z,102089.25
2023-04-18T16:57:44.276Z,102089.38
2023-04-18T17:00:13.500Z,102088.41
2023-04-18T17:02:44.465Z,102084.56
2023-04-18T17:05:12.103Z,102088.13
2023-04-18T17:07:41.262Z,102093.88
2023-04-18T17:10:10.371Z,102104.28
2023-04-18T17:12:40.899Z,102102.66
2023-04-18T17:15:08.397Z,102102.00
2023-04-18T17:17:35.758Z,102106.44
2023-04-18T17:20:06.009Z,102106.84
2023-04-18T17:22:33.058Z,102108.81
2023-04-18T17:25:01.660Z,102109.56
2023-04-18T17:27:29.815Z,102098.09
2023-04-18T17:29:57.050Z,102113.78
2023-04-18T17:32:24.241Z,102108.59
2023-04-18T17:34:52.930Z,102116.06
2023-04-18T17:37:22.561Z,102110.03
2023-04-18T17:39:50.353Z,102109.09
2023-04-18T17:42:19.498Z,102117.63
2023-04-18T17:44:46.599Z,102120.19
2023-04-18T17:47:13.911Z,102120.09
2023-04-18T17:49:41.053Z,102108.72
2023-04-18T17:52:08.111Z,102116.78
2023-04-18T17:54:37.629Z,102111.44
2023-04-18T17:57:04.747Z,102121.03
2023-04-18T17:59:37.535Z,102124.09
2023-04-18T18:02:05.864Z,102121.47
2023-04-18T18:04:33.143Z,102117.91
2023-04-18T18:07:01.043Z,102115.66
2023-04-18T18:09:28.099Z,102128.06
2023-04-18T18:11:56.026Z,102133.63
2023-04-18T18:14:23.523Z,102128.13
2023-04-18T18:16:50.846Z,102134.69
2023-04-18T18:19:18.847Z,102134.25
2023-04-18T18:21:47.255Z,102138.63
2023-04-18T18:24:14.408Z,102141.34
2023-04-18T18:26:41.728Z,102147.88
2023-04-18T18:29:09.824Z,102142.94
2023-04-18T18:31:37.446Z,102145.53
2023-04-18T18:34:05.782Z,102139.31
2023-04-18T18:36:32.926Z,102144.19
2023-04-18T18:39:00.052Z,102137.25
2023-04-18T18:41:27.204Z,102141.44
2023-04-18T18:43:54.466Z,102145.88
2023-04-18T18:46:21.602Z,102147.19
2023-04-18T18:48:51.884Z,102151.88
2023-04-18T18:51:23.650Z,102149.69
2023-04-18T18:53:57.970Z,102154.56
2023-04-18T18:56:28.009Z,102156.75
2023-04-18T18:58:57.944Z,102155.06
2023-04-18T19:01:30.125Z,102159.13
2023-04-18T19:03:57.370Z,102157.03
2023-04-18T19:06:24.606Z,102167.16
2023-04-18T19:08:51.655Z,102160.56
2023-04-18T19:11:19.535Z,102166.66
2023-04-18T19:13:46.761Z,102178.22
2023-04-18T19:16:13.957Z,102171.84
2023-04-18T19:18:43.488Z,102175.38
2023-04-18T19:21:11.128Z,102181.19
2023-04-18T19:23:38.189Z,102169.00
2023-04-18T19:26:05.245Z,102183.19
2023-04-18T19:28:32.313Z,102173.53
2023-04-18T19:30:59.482Z,102173.28
2023-04-18T19:33:27.460Z,102171.50
2023-04-18T19:35:54.784Z,102182.09
2023-04-18T19:38:21.993Z,102172.72
2023-04-18T19:40:49.051Z,102165.84
2023-04-18T19:43:16.182Z,102167.34
2023-04-18T19:45:43.240Z,102168.69
2023-04-18T19:48:10.441Z,102159.72
2023-04-18T19:50:40.502Z,102166.44
2023-04-18T19:53:08.030Z,102166.88
2023-04-18T19:55:35.376Z,102163.88
2023-04-18T19:58:02.496Z,102164.44
2023-04-18T20:00:29.834Z,102160.91
2023-04-18T20:02:58.626Z,102161.34
2023-04-18T20:05:25.895Z,102162.47
2023-04-18T20:07:53.004Z,102159.38
2023-04-18T20:10:23.587Z,102157.50
2023-04-18T20:12:50.974Z,102163.59
2023-04-18T20:15:18.125Z,102161.44
2023-04-18T20:17:45.356Z,102163.47
2023-04-18T20:20:13.026Z,102162.59
2023-04-18T20:22:41.738Z,102160.84
2023-04-18T20:25:09.104Z,102162.78
2023-04-18T20:27:36.135Z,102156.56
2023-04-18T20:30:03.399Z,102165.72
2023-04-18T20:32:30.903Z,102164.06
2023-04-18T20:34:58.542Z,102165.03
2023-04-18T20:37:27.595Z,102161.75
2023-04-18T20:39:55.717Z,102153.03
2023-04-18T20:42:23.554Z,102160.03
2023-04-18T20:44:51.352Z,102163.16
2023-04-18T20:47:18.400Z,102159.47
2023-04-18T20:49:45.624Z,102167.75
2023-04-18T20:52:14.224Z,102165.63
2023-04-18T20:54:44.486Z,102170.69
2023-04-18T20:57:11.547Z,102159.06
2023-04-18T20:59:38.620Z,102166.13
2023-04-18T21:02:07.976Z,102167.81
2023-04-18T21:04:35.263Z,102167.66
2023-04-18T21:07:02.338Z,102164.84
2023-04-18T21:09:30.923Z,102164.19
2023-04-18T21:11:58.445Z,102166.34
2023-04-18T21:14:25.602Z,102174.22
2023-04-18T21:16:52.658Z,102170.41
2023-04-18T21:19:19.728Z,102166.25
2023-04-18T21:21:46.807Z,102172.72
2023-04-18T21:24:14.148Z,102173.03
2023-04-18T21:26:41.518Z,102171.41
2023-04-18T21:29:08.588Z,102169.78
2023-04-18T21:31:36.030Z,102173.25
2023-04-18T21:34:09.226Z,102178.16
2023-04-18T21:36:36.396Z,102169.09
2023-04-18T21:39:03.979Z,102169.31
2023-04-18T21:41:31.353Z,102172.25
2023-04-18T21:43:58.436Z,102174.03
2023-04-18T21:46:25.560Z,102155.75
2023-04-18T21:48:52.635Z,102161.94
2023-04-18T21:51:19.738Z,102156.91
2023-04-18T21:53:47.008Z,102158.72
2023-04-18T21:56:14.316Z,102162.03
2023-04-18T21:58:41.413Z,102166.41
2023-04-18T22:01:08.595Z,102157.69
2023-04-18T22:03:36.957Z,102150.97
2023-04-18T22:06:04.686Z,102151.88
2023-04-18T22:08:31.736Z,102150.72
2023-04-18T22:11:00.192Z,102147.94
2023-04-18T22:13:30.063Z,102151.28
2023-04-18T22:15:58.163Z,102146.31
2023-04-18T22:18:25.504Z,102141.91
2023-04-18T22:20:53.800Z,102145.50
2023-04-18T22:23:21.015Z,102145.63
2023-04-18T22:25:48.615Z,102140.06
2023-04-18T22:28:15.931Z,102140.19
2023-04-18T22:30:43.011Z,102134.25
2023-04-18T22:33:10.240Z,102131.66
2023-04-18T22:35:37.367Z,102134.44
2023-04-18T22:38:04.531Z,102127.97
2023-04-18T22:40:31.592Z,102123.19
2023-04-18T22:42:58.618Z,102125.25
2023-04-18T22:45:25.658Z,102121.44
2023-04-18T22:47:52.759Z,102119.72
2023-04-18T22:50:20.023Z,102119.66
2023-04-18T22:52:47.086Z,102122.63
2023-04-18T22:55:16.410Z,102116.22
2023-04-18T22:57:43.506Z,102115.47
2023-04-18T23:00:11.922Z,102115.63
2023-04-18T23:02:39.156Z,102115.97
2023-04-18T23:05:07.966Z,102114.00
2023-04-18T23:07:35.070Z,102120.94
2023-04-18T23:10:06.542Z,102105.16
2023-04-18T23:12:33.713Z,102112.59
2023-04-18T23:15:00.990Z,102112.97
2023-04-18T23:17:28.081Z,102109.25
2023-04-18T23:19:55.262Z,102114.94
2023-04-18T23:22:25.600Z,102114.03
2023-04-18T23:24:52.697Z,102119.88
2023-04-18T23:27:20.081Z,102117.75
2023-04-18T23:29:48.720Z,102112.28
2023-04-18T23:32:16.248Z,102115.84
2023-04-18T23:34:44.746Z,102116.22
2023-04-18T23:37:11.811Z,102109.19
2023-04-18T23:39:38.902Z,102107.03
2023-04-18T23:42:05.989Z,102106.09
2023-04-18T23:44:33.107Z,102103.84
2023-04-18T23:47:00.190Z,102115.25
2023-04-18T23:49:28.336Z,102111.44
2023-04-18T23:51:55.396Z,102105.97
2023-04-18T23:54:22.490Z,102111.78
2023-04-18T23:56:49.693Z,102103.84
2023-04-18T23:59:16.751Z,102101.34
